Time;durP1;ratioP1;P1;durP2;ratioP2;P2;SDS_P1;SDS_P2;PMS_P1;PMS_P2;Temp;Humidity;BMP_temperature;BMP_pressure;BME280_temperature;BME280_humidity;BME280_pressure;Samples;Min_cycle;Max_cycle;Signal;HPM_P1;HPM_P2
2021/06/06 00:00:21;;;;;;;85.88;44.42;;;15.10;99.90;;;;;;5034986;28;20040;-70
2021/06/06 00:02:47;;;;;;;80.50;41.83;;;15.10;99.90;;;;;;5035541;28;20116;-70
2021/06/06 00:05:15;;;;;;;79.80;40.38;;;15.10;99.90;;;;;;5035811;28;20124;-70
2021/06/06 00:07:41;;;;;;;89.65;42.45;;;15.10;99.90;;;;;;5035427;28;20070;-70
2021/06/06 00:10:08;;;;;;;71.25;40.50;;;15.00;99.90;;;;;;5034763;28;20132;-70
2021/06/06 00:12:34;;;;;;;82.22;41.42;;;15.10;99.90;;;;;;5035115;28;20116;-70
2021/06/06 00:15:05;;;;;;;78.15;40.67;;;15.10;99.90;;;;;;5035081;28;20045;-70
2021/06/06 00:17:31;;;;;;;82.40;41.10;;;15.10;99.90;;;;;;5035024;28;20038;-70
2021/06/06 00:19:56;;;;;;;85.30;42.42;;;15.10;99.90;;;;;;5034794;28;20113;-70
2021/06/06 00:22:22;;;;;;;85.05;42.53;;;15.00;99.90;;;;;;5035305;28;20100;-70
2021/06/06 00:24:48;;;;;;;80.72;41.15;;;15.00;99.90;;;;;;5035455;28;20037;-70
2021/06/06 00:27:14;;;;;;;81.22;41.35;;;15.00;99.90;;;;;;5035256;28;20117;-70
2021/06/06 00:29:40;;;;;;;101.10;44.88;;;15.00;99.90;;;;;;5034674;28;20069;-70
2021/06/06 00:32:06;;;;;;;90.25;43.55;;;15.10;99.90;;;;;;5034793;28;20385;-70
2021/06/06 00:34:32;;;;;;;83.70;40.78;;;15.00;99.90;;;;;;5034726;28;20076;-70
2021/06/06 00:36:58;;;;;;;84.95;42.53;;;15.00;99.90;;;;;;5035176;28;20485;-70
2021/06/06 00:39:24;;;;;;;80.22;40.67;;;15.00;99.90;;;;;;5034546;28;20116;-70
2021/06/06 00:41:51;;;;;;;81.18;42.40;;;15.00;99.90;;;;;;5034489;28;20116;-70
2021/06/06 00:44:18;;;;;;;84.93;43.05;;;15.00;99.90;;;;;;5034432;28;20041;-70
2021/06/06 00:46:45;;;;;;;81.78;41.95;;;15.00;99.90;;;;;;5034311;28;20041;-70
2021/06/06 00:49:11;;;;;;;88.90;41.80;;;15.00;99.90;;;;;;5034450;28;20041;-70
2021/06/06 00:51:43;;;;;;;85.47;43.20;;;15.00;99.90;;;;;;5034143;28;20497;-70
2021/06/06 00:54:21;;;;;;;85.38;41.67;;;15.00;99.90;;;;;;5034810;28;20041;-70
2021/06/06 00:56:50;;;;;;;86.88;43.25;;;15.00;99.90;;;;;;5034358;28;20041;-70
2021/06/06 00:59:20;;;;;;;87.50;40.50;;;15.00;99.90;;;;;;5034017;28;20049;-70
2021/06/06 01:01:46;;;;;;;95.80;43.35;;;15.00;99.90;;;;;;5034077;28;20041;-70
2021/06/06 01:04:12;;;;;;;94.95;44.17;;;14.90;99.90;;;;;;5033971;28;20042;-70
2021/06/06 01:06:43;;;;;;;101.78;45.92;;;15.00;99.90;;;;;;5034705;28;20433;-69
2021/06/06 01:09:11;;;;;;;128.63;46.58;;;14.90;99.90;;;;;;5033683;28;20037;-70
2021/06/06 01:12:24;;;;;;;95.80;46.33;;;14.90;99.90;;;;;;5033763;28;20505;-70
2021/06/06 01:15:07;;;;;;;95.85;45.13;;;14.90;99.90;;;;;;5011554;28;20075;-70
2021/06/06 01:17:47;;;;;;;93.50;43.90;;;14.90;99.90;;;;;;5034024;28;20474;-70
2021/06/06 01:20:29;;;;;;;82.13;41.97;;;14.90;99.90;;;;;;5032721;28;20547;-70
2021/06/06 01:23:34;;;;;;;87.72;45.42;;;14.90;99.90;;;;;;5034439;28;20068;-70
2021/06/06 01:26:29;;;;;;;94.78;45.08;;;15.00;99.90;;;;;;5033916;28;20060;-70
2021/06/06 01:29:11;;;;;;;94.70;43.95;;;14.90;99.90;;;;;;5033369;28;20520;-70
2021/06/06 01:31:41;;;;;;;107.93;46.78;;;14.90;99.90;;;;;;5034251;28;20508;-70
2021/06/06 01:34:10;;;;;;;94.32;43.70;;;14.90;99.90;;;;;;5034008;28;20084;-70
2021/06/06 01:36:41;;;;;;;97.88;48.15;;;14.90;99.90;;;;;;5034020;28;20478;-70
2021/06/06 01:39:16;;;;;;;94.82;46.40;;;14.90;99.90;;;;;;5033695;28;20038;-70
2021/06/06 01:41:47;;;;;;;93.50;46.35;;;14.90;99.90;;;;;;5034231;28;20034;-70
2021/06/06 01:44:17;;;;;;;89.63;46.38;;;14.90;99.90;;;;;;5032706;28;20046;-70
2021/06/06 01:46:48;;;;;;;85.45;47.35;;;14.90;99.90;;;;;;5033315;28;20522;-70
2021/06/06 01:49:17;;;;;;;88.35;45.78;;;14.90;99.90;;;;;;5033337;28;20033;-70
2021/06/06 01:51:46;;;;;;;81.25;47.05;;;14.90;99.90;;;;;;5033167;28;20056;-70
2021/06/06 01:54:15;;;;;;;80.18;45.70;;;15.00;99.90;;;;;;5033501;28;20069;-70
2021/06/06 01:56:47;;;;;;;82.10;46.13;;;14.90;99.90;;;;;;5033886;28;20049;-70
2021/06/06 01:59:36;;;;;;;84.55;44.60;;;15.00;99.90;;;;;;5032982;28;20041;-70
2021/06/06 02:02:04;;;;;;;81.38;42.05;;;15.00;99.90;;;;;;5034056;28;20060;-70
2021/06/06 02:04:29;;;;;;;85.57;46.53;;;15.00;99.90;;;;;;5033806;28;20092;-70
2021/06/06 02:07:05;;;;;;;78.25;46.70;;;15.00;99.90;;;;;;5033425;28;20041;-70
2021/06/06 02:09:34;;;;;;;80.82;45.20;;;15.00;99.90;;;;;;5032977;28;20083;-70
2021/06/06 02:12:03;;;;;;;72.00;44.58;;;15.00;99.90;;;;;;5033203;28;20037;-70
2021/06/06 02:14:35;;;;;;;75.32;43.80;;;15.00;99.90;;;;;;5033471;28;20079;-69
2021/06/06 02:17:04;;;;;;;73.70;44.83;;;15.00;99.90;;;;;;5033168;28;20068;-70
2021/06/06 02:19:31;;;;;;;74.32;41.42;;;15.00;99.90;;;;;;5032926;28;20037;-70
2021/06/06 02:22:04;;;;;;;65.18;41.00;;;15.00;99.90;;;;;;5033100;28;20048;-70
2021/06/06 02:24:30;;;;;;;;;;;15.10;99.90;;;;;;5034174;28;20465;-70
2021/06/06 02:27:08;;;;;;;72.57;42.60;;;15.00;99.90;;;;;;5033235;28;19970;-70
2021/06/06 02:30:12;;;;;;;70.03;41.85;;;15.00;99.90;;;;;;5032721;28;20068;-70
2021/06/06 02:32:54;;;;;;;68.10;41.17;;;15.00;99.90;;;;;;5033594;28;20034;-70
2021/06/06 02:35:23;;;;;;;66.20;40.38;;;15.00;99.90;;;;;;5033799;28;20089;-70
2021/06/06 02:38:27;;;;;;;73.93;41.47;;;15.00;99.90;;;;;;5033140;28;20162;-70
2021/06/06 02:41:16;;;;;;;64.55;40.80;;;15.00;99.90;;;;;;5012233;28;20061;-70
2021/06/06 02:43:59;;;;;;;67.55;42.30;;;15.00;99.90;;;;;;5033217;28;20037;-70
2021/06/06 02:46:26;;;;;;;63.55;41.13;;;15.00;99.90;;;;;;5033163;28;20042;-70
2021/06/06 02:49:23;;;;;;;57.97;38.25;;;15.00;99.90;;;;;;5032567;28;20065;-70
2021/06/06 02:51:58;;;;;;;62.33;39.78;;;15.00;99.90;;;;;;5033076;28;20037;-70
2021/06/06 02:54:31;;;;;;;57.53;39.38;;;15.00;99.90;;;;;;5033386;28;20044;-70
2021/06/06 02:57:00;;;;;;;59.67;40.73;;;15.00;99.90;;;;;;5035853;28;20049;-70
2021/06/06 02:59:37;;;;;;;57.88;40.10;;;15.10;99.90;;;;;;5036099;28;20342;-70
2021/06/06 03:02:08;;;;;;;58.53;40.20;;;15.00;99.90;;;;;;5037191;28;20086;-70
2021/06/06 03:04:37;;;;;;;60.33;39.38;;;15.00;99.90;;;;;;5036742;28;20470;-70
2021/06/06 03:07:15;;;;;;;57.13;40.00;;;15.00;99.90;;;;;;5036271;28;20041;-70
2021/06/06 03:09:41;;;;;;;54.15;38.33;;;15.00;99.90;;;;;;5035905;28;20493;-70
2021/06/06 03:12:10;;;;;;;53.35;37.22;;;15.00;99.90;;;;;;5036874;28;20099;-70
2021/06/06 03:14:41;;;;;;;54.70;37.83;;;15.00;99.90;;;;;;5036476;28;20043;-70
2021/06/06 03:17:22;;;;;;;50.65;37.03;;;15.00;99.90;;;;;;5036222;28;20103;-70
2021/06/06 03:19:51;;;;;;;51.95;36.88;;;15.00;99.90;;;;;;5036336;28;20076;-70
2021/06/06 03:22:28;;;;;;;52.90;36.22;;;15.00;99.90;;;;;;5036170;28;20041;-70
2021/06/06 03:25:04;;;;;;;50.63;36.20;;;15.00;99.90;;;;;;5036388;28;20034;-70
2021/06/06 03:27:36;;;;;;;49.03;35.60;;;15.00;99.90;;;;;;5036894;28;20037;-70
2021/06/06 03:30:14;;;;;;;51.22;35.13;;;14.90;99.90;;;;;;5035660;28;20073;-70
2021/06/06 03:32:42;;;;;;;47.80;34.03;;;14.90;99.90;;;;;;5036027;28;20436;-70
2021/06/06 03:35:09;;;;;;;51.92;34.55;;;14.90;99.90;;;;;;5035902;28;20045;-70
2021/06/06 03:37:36;;;;;;;52.50;35.15;;;14.90;99.90;;;;;;5035706;28;20568;-70
2021/06/06 03:40:08;;;;;;;47.22;34.22;;;14.90;99.90;;;;;;5035266;28;20045;-70
2021/06/06 03:42:35;;;;;;;48.63;33.97;;;14.90;99.90;;;;;;5036011;28;20076;-70
2021/06/06 03:45:00;;;;;;;51.38;35.28;;;14.90;99.90;;;;;;5036139;28;20037;-70
2021/06/06 03:47:26;;;;;;;47.33;34.42;;;14.90;99.90;;;;;;5035783;28;20394;-70
2021/06/06 03:49:53;;;;;;;50.80;33.70;;;14.90;99.90;;;;;;5035264;28;20053;-70
2021/06/06 03:52:19;;;;;;;47.58;33.55;;;14.90;99.90;;;;;;5035629;28;20040;-70
2021/06/06 03:54:45;;;;;;;42.45;33.60;;;14.90;99.90;;;;;;5035258;28;20038;-70
2021/06/06 03:57:10;;;;;;;48.92;33.22;;;14.90;99.90;;;;;;5035628;28;20033;-70
2021/06/06 03:59:36;;;;;;;44.50;30.65;;;14.90;99.90;;;;;;5035301;28;20037;-70
2021/06/06 04:02:02;;;;;;;46.83;32.20;;;14.90;99.90;;;;;;5035246;28;20033;-70
2021/06/06 04:04:28;;;;;;;45.95;34.03;;;14.90;99.90;;;;;;5035731;28;20539;-70
2021/06/06 04:06:53;;;;;;;48.90;33.78;;;14.90;99.90;;;;;;5034821;28;20068;-70
2021/06/06 04:09:19;;;;;;;47.67;34.67;;;14.90;99.90;;;;;;5034234;28;20053;-70
2021/06/06 04:11:45;;;;;;;48.65;34.92;;;14.90;99.90;;;;;;5035034;28;20504;-70
2021/06/06 04:14:11;;;;;;;46.38;33.83;;;14.90;99.90;;;;;;5035702;28;20044;-70
2021/06/06 04:16:37;;;;;;;44.75;34.92;;;14.90;99.90;;;;;;5034841;28;20481;-70
2021/06/06 04:19:04;;;;;;;44.15;31.75;;;14.90;99.90;;;;;;5034646;28;20040;-70
2021/06/06 04:21:32;;;;;;;43.50;31.17;;;14.90;99.90;;;;;;5035569;28;20045;-70
2021/06/06 04:23:57;;;;;;;41.92;30.42;;;14.90;99.90;;;;;;5034805;28;20112;-70
2021/06/06 04:26:24;;;;;;;43.03;30.85;;;14.90;99.90;;;;;;5033594;28;20461;-70
2021/06/06 04:28:50;;;;;;;42.95;30.02;;;14.80;99.90;;;;;;5034368;28;20120;-70
2021/06/06 04:31:17;;;;;;;43.42;29.73;;;14.80;99.90;;;;;;5034913;28;20049;-70
2021/06/06 04:33:43;;;;;;;39.70;29.95;;;14.80;99.90;;;;;;5035134;28;20041;-70
2021/06/06 04:36:10;;;;;;;42.95;32.47;;;14.80;99.90;;;;;;5034983;28;20034;-70
2021/06/06 04:38:36;;;;;;;46.15;32.70;;;14.70;99.90;;;;;;5034452;28;20052;-70
2021/06/06 04:41:09;;;;;;;49.42;33.95;;;14.70;99.90;;;;;;5034482;28;20037;-70
2021/06/06 04:43:36;;;;;;;47.03;31.85;;;14.70;99.90;;;;;;5035055;28;20041;-70
2021/06/06 04:46:02;;;;;;;45.92;32.67;;;14.70;99.90;;;;;;5034586;28;20044;-70
2021/06/06 04:48:31;;;;;;;47.30;34.65;;;14.80;99.90;;;;;;5032978;28;20045;-70
2021/06/06 04:50:59;;;;;;;49.13;32.63;;;14.80;99.90;;;;;;5034127;28;20524;-70
2021/06/06 04:53:25;;;;;;;43.53;32.50;;;14.80;99.90;;;;;;5034156;28;20112;-70
2021/06/06 04:55:52;;;;;;;42.05;31.50;;;14.70;99.90;;;;;;5034267;28;20116;-70
2021/06/06 04:58:20;;;;;;;44.17;31.92;;;14.70;99.90;;;;;;5034253;28;20413;-70
2021/06/06 05:00:47;;;;;;;42.40;30.98;;;14.80;99.90;;;;;;5033810;28;20044;-70
2021/06/06 05:03:15;;;;;;;45.15;30.15;;;14.80;99.90;;;;;;5034267;28;20113;-70
2021/06/06 05:05:41;;;;;;;43.80;30.63;;;14.80;99.90;;;;;;5034605;28;20041;-70
2021/06/06 05:08:07;;;;;;;40.97;29.23;;;14.70;99.90;;;;;;5034021;28;20049;-70
2021/06/06 05:10:36;;;;;;;39.63;28.15;;;14.70;99.90;;;;;;5033658;28;20059;-70
2021/06/06 05:13:03;;;;;;;44.83;29.23;;;14.70;99.90;;;;;;5034037;28;20048;-70
2021/06/06 05:15:29;;;;;;;44.65;29.98;;;14.60;99.90;;;;;;5033897;28;20470;-70
2021/06/06 05:17:55;;;;;;;37.30;26.77;;;14.60;99.90;;;;;;5034369;28;20042;-70
2021/06/06 05:20:27;;;;;;;34.72;25.15;;;14.60;99.90;;;;;;5033235;28;20076;-70
2021/06/06 05:22:53;;;;;;;29.55;21.05;;;14.60;99.90;;;;;;5034412;28;20449;-70
2021/06/06 05:25:19;;;;;;;28.38;21.30;;;14.70;99.90;;;;;;5033956;28;20116;-70
2021/06/06 05:27:45;;;;;;;31.98;21.92;;;14.60;99.90;;;;;;5033971;28;20528;-70
2021/06/06 05:30:14;;;;;;;27.35;19.63;;;14.60;99.90;;;;;;5033668;28;20454;-70
2021/06/06 05:32:41;;;;;;;29.52;22.08;;;14.70;99.90;;;;;;5033953;28;20593;-70
2021/06/06 05:35:07;;;;;;;29.20;20.75;;;14.70;99.90;;;;;;5034206;28;20053;-70
2021/06/06 05:37:33;;;;;;;29.40;21.30;;;14.70;99.90;;;;;;5033512;28;20033;-70
2021/06/06 05:40:00;;;;;;;32.03;21.80;;;14.70;99.90;;;;;;5033318;28;20124;-70
2021/06/06 05:42:25;;;;;;;28.83;20.33;;;14.80;99.90;;;;;;5033557;28;20033;-70
2021/06/06 05:44:51;;;;;;;33.80;21.27;;;14.80;99.90;;;;;;5033917;28;20034;-70
2021/06/06 05:47:17;;;;;;;37.20;23.55;;;14.80;99.90;;;;;;5034005;28;20099;-70
2021/06/06 05:49:42;;;;;;;37.58;25.02;;;14.80;99.90;;;;;;5032942;28;20116;-70
2021/06/06 05:52:08;;;;;;;39.60;24.08;;;14.80;99.90;;;;;;5032957;28;20038;-70
2021/06/06 05:54:34;;;;;;;41.63;25.48;;;14.80;99.90;;;;;;5033716;28;20076;-70
2021/06/06 05:57:00;;;;;;;37.03;23.58;;;14.80;99.90;;;;;;5033679;28;20046;-70
2021/06/06 05:59:26;;;;;;;40.78;24.35;;;14.90;99.90;;;;;;5033296;28;20079;-70
2021/06/06 06:01:52;;;;;;;36.45;25.17;;;14.80;99.90;;;;;;5033495;28;20064;-70
2021/06/06 06:04:18;;;;;;;40.28;25.00;;;14.90;99.90;;;;;;5033879;28;20037;-70
2021/06/06 06:06:43;;;;;;;39.60;25.02;;;14.90;99.90;;;;;;5033367;28;20048;-70
2021/06/06 06:09:09;;;;;;;41.65;26.92;;;14.80;99.90;;;;;;5032872;28;20033;-70
2021/06/06 06:11:35;;;;;;;38.15;26.73;;;14.90;99.90;;;;;;5033142;28;20116;-69
2021/06/06 06:14:00;;;;;;;44.38;27.80;;;14.90;99.90;;;;;;5033622;28;20466;-70
2021/06/06 06:16:31;;;;;;;43.72;26.67;;;14.90;99.90;;;;;;5033231;28;20404;-70
2021/06/06 06:18:57;;;;;;;46.08;30.17;;;14.80;99.90;;;;;;5032972;28;20220;-70
2021/06/06 06:21:26;;;;;;;51.95;31.45;;;14.80;99.90;;;;;;5033205;28;20037;-70
2021/06/06 06:23:51;;;;;;;52.67;31.65;;;14.80;99.90;;;;;;5033675;28;20041;-69
2021/06/06 06:26:19;;;;;;;54.63;30.58;;;14.80;99.90;;;;;;5033401;28;20037;-70
2021/06/06 06:29:07;;;;;;;51.53;29.05;;;14.80;99.90;;;;;;5032708;28;20053;-70
2021/06/06 06:31:33;;;;;;;51.75;30.05;;;14.80;99.90;;;;;;5035326;28;20038;-70
2021/06/06 06:34:00;;;;;;;50.47;30.25;;;14.80;99.90;;;;;;5037021;28;20045;-70
2021/06/06 06:36:29;;;;;;;52.42;29.42;;;14.80;99.90;;;;;;5037059;28;20041;-70
2021/06/06 06:38:56;;;;;;;48.38;29.27;;;14.80;99.90;;;;;;5037018;28;20041;-69
2021/06/06 06:41:24;;;;;;;45.00;28.90;;;14.80;99.90;;;;;;5037342;28;20493;-70
2021/06/06 06:43:50;;;;;;;44.17;28.70;;;14.80;99.90;;;;;;5037379;28;20045;-70
2021/06/06 06:46:16;;;;;;;37.30;25.90;;;14.80;99.90;;;;;;5036734;28;20099;-70
2021/06/06 06:48:42;;;;;;;42.33;26.73;;;14.80;99.90;;;;;;5036307;28;20061;-70
2021/06/06 06:51:09;;;;;;;39.78;25.17;;;14.80;99.90;;;;;;5036470;28;20045;-69
2021/06/06 06:53:35;;;;;;;35.05;23.05;;;14.80;99.90;;;;;;5036727;28;20405;-69
2021/06/06 06:56:00;;;;;;;36.35;23.63;;;14.80;99.90;;;;;;5036549;28;20038;-69
2021/06/06 06:58:27;;;;;;;38.50;22.27;;;14.80;99.90;;;;;;5036050;28;20049;-70
2021/06/06 07:00:54;;;;;;;29.55;19.30;;;14.80;99.90;;;;;;5036859;28;20040;-69
2021/06/06 07:03:24;;;;;;;26.50;17.85;;;14.90;99.90;;;;;;5036483;28;20038;-69
2021/06/06 07:05:50;;;;;;;26.20;16.55;;;14.90;99.90;;;;;;5036368;28;20459;-69
2021/06/06 07:08:19;;;;;;;25.92;15.68;;;14.90;99.90;;;;;;5036649;28;20053;-69
2021/06/06 07:10:47;;;;;;;24.50;16.67;;;14.90;99.90;;;;;;5036388;28;20037;-69
2021/06/06 07:13:13;;;;;;;24.20;17.02;;;14.80;99.90;;;;;;5037258;28;20462;-69
2021/06/06 07:15:40;;;;;;;27.50;16.88;;;14.90;99.90;;;;;;5036234;28;20041;-69
2021/06/06 07:18:09;;;;;;;26.58;16.58;;;14.80;99.90;;;;;;5036417;28;20485;-69
2021/06/06 07:20:38;;;;;;;25.70;18.48;;;14.90;99.90;;;;;;5036095;28;20037;-69
2021/06/06 07:23:07;;;;;;;28.13;17.30;;;14.90;99.90;;;;;;5036593;28;20087;-70
2021/06/06 07:25:32;;;;;;;35.17;19.45;;;14.80;99.90;;;;;;5036606;28;20478;-69
2021/06/06 07:27:59;;;;;;;28.83;17.98;;;14.70;99.90;;;;;;5036124;28;20099;-69
2021/06/06 07:30:46;;;;;;;34.47;20.90;;;14.80;99.90;;;;;;5035748;28;20513;-69
2021/06/06 07:33:16;;;;;;;28.90;18.83;;;14.80;99.90;;;;;;5036414;28;20061;-69
2021/06/06 07:35:43;;;;;;;35.08;21.45;;;14.80;99.90;;;;;;5036617;28;20045;-69
2021/06/06 07:38:29;;;;;;;33.42;21.77;;;14.80;99.90;;;;;;5034563;28;20456;-70
2021/06/06 07:40:58;;;;;;;36.38;22.85;;;14.80;99.90;;;;;;5035544;28;20046;-70
2021/06/06 07:43:24;;;;;;;40.97;23.90;;;14.80;99.90;;;;;;5035628;28;20120;-69
2021/06/06 07:45:51;;;;;;;41.33;23.75;;;14.80;99.90;;;;;;5036004;28;20041;-68
2021/06/06 07:48:17;;;;;;;35.47;22.92;;;14.80;99.90;;;;;;5036238;28;20041;-69
2021/06/06 07:50:46;;;;;;;38.97;24.52;;;14.80;99.90;;;;;;5035340;28;20473;-69
2021/06/06 07:53:12;;;;;;;39.90;24.38;;;14.80;99.90;;;;;;5035608;28;20052;-70
2021/06/06 07:55:52;;;;;;;45.60;26.85;;;14.70;99.90;;;;;;5035269;28;20111;-69
2021/06/06 07:58:21;;;;;;;41.28;25.73;;;14.70;99.90;;;;;;5036083;28;20393;-69
2021/06/06 08:00:47;;;;;;;38.85;25.52;;;14.80;99.90;;;;;;5035103;28;20401;-69
2021/06/06 08:03:13;;;;;;;40.10;25.27;;;14.80;99.90;;;;;;5035738;28;20508;-69
2021/06/06 08:05:40;;;;;;;42.38;26.33;;;14.80;99.90;;;;;;5035212;28;20042;-69
2021/06/06 08:08:08;;;;;;;45.95;27.30;;;14.70;99.90;;;;;;5035694;28;20049;-70
2021/06/06 08:10:37;;;;;;;42.33;26.90;;;14.70;99.90;;;;;;5035078;28;20041;-69
2021/06/06 08:13:04;;;;;;;45.38;27.05;;;14.80;99.90;;;;;;5035072;28;20163;-69
2021/06/06 08:15:29;;;;;;;41.25;25.08;;;14.80;99.90;;;;;;5034840;28;20128;-69
2021/06/06 08:17:56;;;;;;;43.05;26.02;;;14.50;99.90;;;;;;5035163;28;20104;-69
2021/06/06 08:20:27;;;;;;;50.65;27.75;;;14.60;99.90;;;;;;5034725;28;20041;-70
2021/06/06 08:22:54;;;;;;;43.33;28.25;;;14.50;99.90;;;;;;5035226;28;20033;-69
2021/06/06 08:25:21;;;;;;;48.53;27.50;;;14.60;99.90;;;;;;5035275;28;20484;-69
2021/06/06 08:27:48;;;;;;;49.50;29.30;;;14.60;99.90;;;;;;5034820;28;20037;-69
2021/06/06 08:30:22;;;;;;;57.58;31.40;;;14.70;99.90;;;;;;5034340;28;20099;-70
2021/06/06 08:32:48;;;;;;;46.28;26.88;;;14.60;99.90;;;;;;5035256;28;20417;-70
2021/06/06 08:35:14;;;;;;;46.08;27.48;;;14.60;99.90;;;;;;5034991;28;20049;-70
2021/06/06 08:37:40;;;;;;;51.28;29.40;;;14.70;99.90;;;;;;5034710;28;20045;-70
2021/06/06 08:40:10;;;;;;;51.45;28.25;;;14.70;99.90;;;;;;5034186;28;20060;-70
2021/06/06 08:42:41;;;;;;;46.30;27.00;;;14.50;99.90;;;;;;5034681;28;20047;-70
2021/06/06 08:45:33;;;;;;;42.05;26.52;;;14.60;99.90;;;;;;5034570;28;20470;-70
2021/06/06 08:48:01;;;;;;;43.13;26.10;;;14.60;99.90;;;;;;5032379;28;20060;-70
2021/06/06 08:50:37;;;;;;;41.80;24.27;;;14.60;99.90;;;;;;5034005;28;20441;-71
2021/06/06 08:53:15;;;;;;;49.03;25.88;;;14.70;99.90;;;;;;5034542;28;20038;-70
2021/06/06 08:56:01;;;;;;;41.95;24.42;;;14.70;99.90;;;;;;5034322;28;20076;-70
2021/06/06 08:58:47;;;;;;;39.33;22.70;;;14.80;99.90;;;;;;5034138;28;20041;-70
2021/06/06 09:01:18;;;;;;;30.25;19.80;;;14.70;99.90;;;;;;5034528;28;20039;-69
2021/06/06 09:03:44;;;;;;;29.90;20.52;;;14.80;99.90;;;;;;5034184;28;20045;-72
2021/06/06 09:06:22;;;;;;;32.47;20.40;;;14.80;99.90;;;;;;5033971;28;20508;-69
2021/06/06 09:08:47;;;;;;;27.00;19.67;;;14.80;99.90;;;;;;5033924;28;20099;-70
2021/06/06 09:11:17;;;;;;;32.00;19.77;;;14.90;99.90;;;;;;5034388;28;20037;-69
2021/06/06 09:13:43;;;;;;;28.30;19.33;;;14.90;99.90;;;;;;5034580;28;20393;-69
2021/06/06 09:16:17;;;;;;;22.80;14.57;;;15.00;99.90;;;;;;5034373;28;20044;-69
2021/06/06 09:18:48;;;;;;;19.65;12.93;;;15.10;99.90;;;;;;5033996;28;20049;-70
2021/06/06 09:21:22;;;;;;;16.75;13.30;;;15.10;99.90;;;;;;5033881;28;20041;-70
2021/06/06 09:23:51;;;;;;;15.60;13.05;;;15.10;99.90;;;;;;5034276;28;20041;-68
2021/06/06 09:26:17;;;;;;;19.08;13.00;;;15.30;99.90;;;;;;5034392;28;20049;-69
2021/06/06 09:28:45;;;;;;;16.67;12.63;;;15.20;99.90;;;;;;5033307;28;20509;-70
2021/06/06 09:31:21;;;;;;;13.93;11.82;;;15.20;99.90;;;;;;5033952;28;20058;-69
2021/06/06 09:33:52;;;;;;;16.55;12.05;;;15.10;99.90;;;;;;5033981;28;20363;-70
2021/06/06 09:36:21;;;;;;;11.10;9.43;;;15.20;99.90;;;;;;5033623;28;20038;-70
2021/06/06 09:39:14;;;;;;;11.32;8.85;;;15.20;99.90;;;;;;5033233;28;20045;-70
2021/06/06 09:41:47;;;;;;;12.68;9.63;;;15.20;99.90;;;;;;5031462;28;20054;-69
2021/06/06 09:44:16;;;;;;;11.85;9.55;;;15.00;99.90;;;;;;5033927;28;20042;-69
2021/06/06 09:47:12;;;;;;;10.80;9.60;;;15.10;99.90;;;;;;5033661;28;20045;-69
2021/06/06 09:49:40;;;;;;;10.18;8.68;;;15.10;99.90;;;;;;5033233;28;20132;-70
2021/06/06 09:52:28;;;;;;;11.48;9.27;;;15.20;99.90;;;;;;5033280;28;20116;-69
2021/06/06 09:54:58;;;;;;;10.90;9.77;;;15.20;99.90;;;;;;5034024;28;20043;-70
2021/06/06 09:57:34;;;;;;;11.85;9.95;;;15.10;99.90;;;;;;5033471;28;20077;-69
2021/06/06 10:00:18;;;;;;;13.60;9.35;;;15.00;99.90;;;;;;5033025;28;20478;-69
2021/06/06 10:02:54;;;;;;;10.30;9.20;;;15.00;99.90;;;;;;5033886;28;20500;-69
2021/06/06 10:05:30;;;;;;;9.30;8.30;;;15.20;99.90;;;;;;5033775;28;20471;-69
2021/06/06 10:08:08;;;;;;;9.90;6.97;;;15.30;99.90;;;;;;5038191;28;20390;-70
2021/06/06 10:10:42;;;;;;;8.20;6.53;;;15.30;99.90;;;;;;5037242;28;20489;-70
2021/06/06 10:13:11;;;;;;;7.57;6.88;;;15.40;99.90;;;;;;5037543;28;20052;-70
2021/06/06 10:15:44;;;;;;;7.55;6.75;;;15.50;99.90;;;;;;5037119;28;20037;-70
2021/06/06 10:18:21;;;;;;;8.02;7.00;;;15.40;99.90;;;;;;5037772;28;20072;-70
2021/06/06 10:20:59;;;;;;;6.90;6.10;;;15.40;99.90;;;;;;5036652;28;20552;-70
2021/06/06 10:23:38;;;;;;;6.22;5.07;;;15.50;99.90;;;;;;5037394;28;20112;-70
2021/06/06 10:26:29;;;;;;;6.18;5.57;;;15.50;99.90;;;;;;5037020;28;20052;-70
2021/06/06 10:29:01;;;;;;;6.07;5.25;;;15.50;99.90;;;;;;5036993;28;20149;-70
2021/06/06 10:31:33;;;;;;;5.35;4.93;;;15.50;99.90;;;;;;5037193;28;20041;-70
2021/06/06 10:34:09;;;;;;;5.47;4.68;;;15.50;99.90;;;;;;5037464;28;20033;-70
2021/06/06 10:36:36;;;;;;;5.35;4.53;;;15.50;99.90;;;;;;5037259;28;20122;-70
2021/06/06 10:39:14;;;;;;;5.45;4.78;;;15.50;99.90;;;;;;5036407;28;20041;-71
2021/06/06 10:42:16;;;;;;;4.88;4.47;;;15.30;99.90;;;;;;5036780;28;20061;-70
2021/06/06 10:45:16;;;;;;;5.60;4.55;;;15.40;99.90;;;;;;5037295;28;20048;-70
2021/06/06 10:47:52;;;;;;;5.50;4.60;;;15.60;99.90;;;;;;5036767;28;20076;-70
2021/06/06 10:50:40;;;;;;;5.68;4.97;;;15.40;99.90;;;;;;5036468;28;20049;-70
2021/06/06 10:53:15;;;;;;;5.47;4.97;;;15.50;99.90;;;;;;5037129;28;20045;-69
2021/06/06 10:56:07;;;;;;;6.32;5.72;;;15.70;99.90;;;;;;5037154;28;20037;-69
2021/06/06 10:58:38;;;;;;;5.85;5.25;;;15.70;99.90;;;;;;5033798;28;20057;-69
2021/06/06 11:01:19;;;;;;;5.43;4.93;;;15.70;99.90;;;;;;5036668;28;20069;-69
2021/06/06 11:03:48;;;;;;;5.50;4.90;;;15.70;99.90;;;;;;5036519;28;20048;-69
2021/06/06 11:06:42;;;;;;;6.20;5.60;;;15.70;99.90;;;;;;5037038;28;20095;-69
2021/06/06 11:09:25;;;;;;;5.85;5.22;;;15.70;99.90;;;;;;5035436;28;20081;-69
2021/06/06 11:12:09;;;;;;;5.13;4.63;;;15.70;99.90;;;;;;5036389;28;20041;-69
2021/06/06 11:14:46;;;;;;;5.63;4.85;;;15.70;99.90;;;;;;5036843;28;20437;-69
2021/06/06 11:17:35;;;;;;;6.18;5.53;;;15.60;99.90;;;;;;5035537;28;20073;-69
2021/06/06 11:20:16;;;;;;;7.32;5.43;;;15.70;99.90;;;;;;5035873;28;20041;-68
2021/06/06 11:22:46;;;;;;;6.13;5.32;;;15.70;99.90;;;;;;5036391;28;20120;-69
2021/06/06 11:25:44;;;;;;;5.43;4.93;;;15.60;99.90;;;;;;5036465;28;20038;-69
2021/06/06 11:28:36;;;;;;;4.82;4.30;;;15.80;99.90;;;;;;5035847;28;20484;-69
2021/06/06 11:31:19;;;;;;;4.55;4.10;;;15.80;99.90;;;;;;5036011;28;20033;-69
2021/06/06 11:33:54;;;;;;;3.88;3.58;;;15.90;99.90;;;;;;5036621;28;20066;-70
2021/06/06 11:36:42;;;;;;;4.07;3.78;;;15.90;99.90;;;;;;5035371;28;20172;-70
2021/06/06 11:39:17;;;;;;;4.18;3.78;;;15.80;99.90;;;;;;5035759;28;20045;-70
2021/06/06 11:41:45;;;;;;;4.40;3.88;;;15.80;99.90;;;;;;5036279;28;20114;-70
2021/06/06 11:44:32;;;;;;;4.32;3.80;;;15.70;99.90;;;;;;5035822;28;20436;-69
2021/06/06 11:47:05;;;;;;;4.15;3.75;;;15.60;99.90;;;;;;5035852;28;20049;-70
2021/06/06 11:50:02;;;;;;;4.90;4.40;;;15.60;99.90;;;;;;5035286;28;20568;-70
2021/06/06 11:52:40;;;;;;;4.93;3.50;;;15.80;99.90;;;;;;5035566;28;20054;-70
2021/06/06 11:55:24;;;;;;;4.47;3.50;;;15.70;99.90;;;;;;5035448;28;20405;-71
2021/06/06 11:57:51;;;;;;;;;;;15.70;99.90;;;;;;5036701;28;20042;-71
2021/06/06 12:00:29;;;;;;;4.63;4.05;;;15.70;99.90;;;;;;5035766;28;19927;-71
2021/06/06 12:02:55;;;;;;;4.88;4.25;;;15.80;99.90;;;;;;5035327;28;20497;-71
2021/06/06 12:05:29;;;;;;;5.05;4.55;;;15.80;99.90;;;;;;5035376;28;20041;-71
2021/06/06 12:08:16;;;;;;;5.82;4.40;;;15.90;99.90;;;;;;5035903;28;20116;-70
2021/06/06 12:10:53;;;;;;;4.75;4.25;;;16.00;99.90;;;;;;5034514;28;20103;-69
2021/06/06 12:13:32;;;;;;;5.45;4.93;;;15.90;99.90;;;;;;5033467;28;20061;-68
2021/06/06 12:16:08;;;;;;;6.13;4.85;;;15.90;99.90;;;;;;5035121;28;20037;-69
2021/06/06 12:18:34;;;;;;;5.75;5.25;;;15.90;99.90;;;;;;5035080;28;20046;-69
2021/06/06 12:21:23;;;;;;;7.03;6.32;;;15.60;99.90;;;;;;5035397;28;20068;-69
2021/06/06 12:24:23;;;;;;;8.23;7.38;;;15.80;99.90;;;;;;5034827;28;20053;-69
2021/06/06 12:26:50;;;;;;;8.50;7.60;;;15.80;99.90;;;;;;5033032;28;20351;-69
2021/06/06 12:29:25;;;;;;;10.45;7.75;;;15.90;99.90;;;;;;5033760;28;20044;-69
2021/06/06 12:31:51;;;;;;;8.55;7.05;;;15.90;99.90;;;;;;5035401;28;20037;-69
2021/06/06 12:34:27;;;;;;;7.68;6.65;;;15.90;99.90;;;;;;5034881;28;20076;-69
2021/06/06 12:37:07;;;;;;;8.13;6.85;;;15.90;99.90;;;;;;5033527;28;20470;-69
2021/06/06 12:39:43;;;;;;;6.47;5.85;;;15.90;99.90;;;;;;5032710;28;20049;-69
2021/06/06 12:42:10;;;;;;;7.25;5.40;;;15.80;99.90;;;;;;5035133;28;20034;-69
2021/06/06 12:44:41;;;;;;;6.35;5.75;;;15.60;99.90;;;;;;5034541;28;20093;-70
2021/06/06 12:47:20;;;;;;;7.22;5.80;;;15.70;99.90;;;;;;5034793;28;20037;-70
2021/06/06 12:49:59;;;;;;;7.07;6.07;;;15.60;99.90;;;;;;5034646;28;20383;-70
2021/06/06 12:52:36;;;;;;;7.95;5.93;;;15.70;99.90;;;;;;5034434;28;20037;-70
2021/06/06 12:55:22;;;;;;;8.80;6.38;;;15.80;99.90;;;;;;5035200;28;20441;-70
2021/06/06 12:57:52;;;;;;;8.00;5.75;;;15.80;99.90;;;;;;5034636;28;20046;-70